sensor_id;sensor_type;location;lat;lon;timestamp;P1;durP1;ratioP1;P2;durP2;ratioP2
22515;SDS011;11424;48.860;9.624;2022-12-29T00:01:28;275.1;;;453.7;;
22515;SDS011;11424;48.860;9.624;2022-12-29T00:06:29;333.3;;;537.8;;
22515;SDS011;11424;48.860;9.624;2022-12-29T00:11:28;297.6;;;486.3;;
22515;SDS011;11424;48.860;9.624;2022-12-29T00:16:29;314.2;;;505;;
22515;SDS011;11424;48.860;9.624;2022-12-29T00:21:29;201;;;340;;
22515;SDS011;11424;48.860;9.624;2022-12-29T00:26:28;111.8;;;187.7;;
22515;SDS011;11424;48.860;9.624;2022-12-29T00:31:28;116.4;;;193.4;;
22515;SDS011;11424;48.860;9.624;2022-12-29T00:36:30;177.8;;;304.4;;
22515;SDS011;11424;48.860;9.624;2022-12-29T00:41:28;270.8;;;448.5;;
22515;SDS011;11424;48.860;9.624;2022-12-29T00:46:29;331.3;;;533.1;;
22515;SDS011;11424;48.860;9.624;2022-12-29T00:51:29;355.2;;;577.3;;
22515;SDS011;11424;48.860;9.624;2022-12-29T00:56:29;351.5;;;561.5;;
22515;SDS011;11424;48.860;9.624;2022-12-29T01:01:29;343.1;;;549;;
22515;SDS011;11424;48.860;9.624;2022-12-29T01:06:29;302.5;;;488.1;;
22515;SDS011;11424;48.860;9.624;2022-12-29T01:11:29;305.1;;;492.1;;
22515;SDS011;11424;48.860;9.624;2022-12-29T01:16:29;328.2;;;534;;
22515;SDS011;11424;48.860;9.624;2022-12-29T01:21:29;338.9;;;547.9;;
22515;SDS011;11424;48.860;9.624;2022-12-29T01:26:29;355.7;;;568.3;;
22515;SDS011;11424;48.860;9.624;2022-12-29T01:31:29;349.8;;;573.4;;
22515;SDS011;11424;48.860;9.624;2022-12-29T01:36:29;337.2;;;545;;
22515;SDS011;11424;48.860;9.624;2022-12-29T01:41:29;342.8;;;551.9;;
22515;SDS011;11424;48.860;9.624;2022-12-29T01:46:30;335.9;;;542;;
22515;SDS011;11424;48.860;9.624;2022-12-29T01:51:29;336.7;;;539.9;;
22515;SDS011;11424;48.860;9.624;2022-12-29T01:56:29;326;;;532.4;;
22515;SDS011;11424;48.860;9.624;2022-12-29T02:01:29;317.5;;;510.9;;
22515;SDS011;11424;48.860;9.624;2022-12-29T02:06:29;310.7;;;505.6;;
22515;SDS011;11424;48.860;9.624;2022-12-29T02:11:29;312.3;;;514;;
22515;SDS011;11424;48.860;9.624;2022-12-29T02:16:31;213.3;;;270.9;;
22515;SDS011;11424;48.860;9.624;2022-12-29T02:21:33;75.1;;;83.7;;
22515;SDS011;11424;48.860;9.624;2022-12-29T02:26:33;58.7;;;63.6;;
22515;SDS011;11424;48.860;9.624;2022-12-29T02:31:29;56.2;;;60.7;;
22515;SDS011;11424;48.860;9.624;2022-12-29T02:36:29;67.8;;;74.6;;
22515;SDS011;11424;48.860;9.624;2022-12-29T02:41:30;70.1;;;77.1;;
22515;SDS011;11424;48.860;9.624;2022-12-29T02:46:32;71.2;;;78.2;;
22515;SDS011;11424;48.860;9.624;2022-12-29T02:51:30;67;;;73.7;;
22515;SDS011;11424;48.860;9.624;2022-12-29T02:56:29;64.7;;;71;;
22515;SDS011;11424;48.860;9.624;2022-12-29T03:01:30;56.7;;;61;;
22515;SDS011;11424;48.860;9.624;2022-12-29T03:06:30;56.3;;;60.5;;
22515;SDS011;11424;48.860;9.624;2022-12-29T03:11:30;58.9;;;63.6;;
22515;SDS011;11424;48.860;9.624;2022-12-29T03:16:31;69.9;;;76.8;;
22515;SDS011;11424;48.860;9.624;2022-12-29T03:21:31;65.5;;;71.6;;
22515;SDS011;11424;48.860;9.624;2022-12-29T03:26:29;69.6;;;76.3;;
22515;SDS011;11424;48.860;9.624;2022-12-29T03:31:29;65.1;;;71.3;;
22515;SDS011;11424;48.860;9.624;2022-12-29T03:36:30;74;;;81.5;;
22515;SDS011;11424;48.860;9.624;2022-12-29T03:41:30;73;;;80.2;;
22515;SDS011;11424;48.860;9.624;2022-12-29T03:46:29;58.5;;;63.2;;
22515;SDS011;11424;48.860;9.624;2022-12-29T03:51:29;60.7;;;65.6;;
22515;SDS011;11424;48.860;9.624;2022-12-29T03:56:29;73.7;;;81;;
22515;SDS011;11424;48.860;9.624;2022-12-29T04:01:29;72.7;;;79.8;;
22515;SDS011;11424;48.860;9.624;2022-12-29T04:06:29;71.6;;;78.7;;
22515;SDS011;11424;48.860;9.624;2022-12-29T04:11:29;81.1;;;89.4;;
22515;SDS011;11424;48.860;9.624;2022-12-29T04:16:29;78.3;;;86.1;;
22515;SDS011;11424;48.860;9.624;2022-12-29T04:21:29;87.5;;;96.9;;
22515;SDS011;11424;48.860;9.624;2022-12-29T04:26:29;86.6;;;96;;
22515;SDS011;11424;48.860;9.624;2022-12-29T04:31:29;71.5;;;78.9;;
22515;SDS011;11424;48.860;9.624;2022-12-29T04:36:29;100.8;;;112.1;;
22515;SDS011;11424;48.860;9.624;2022-12-29T04:41:29;105.5;;;117.1;;
22515;SDS011;11424;48.860;9.624;2022-12-29T04:46:29;105.4;;;117.3;;
22515;SDS011;11424;48.860;9.624;2022-12-29T04:51:29;104.6;;;116;;
22515;SDS011;11424;48.860;9.624;2022-12-29T04:56:29;110.7;;;122.9;;
22515;SDS011;11424;48.860;9.624;2022-12-29T05:01:29;109.5;;;121.6;;
22515;SDS011;11424;48.860;9.624;2022-12-29T05:06:29;102.7;;;113.3;;
22515;SDS011;11424;48.860;9.624;2022-12-29T05:11:29;45.1;;;53.1;;
22515;SDS011;11424;48.860;9.624;2022-12-29T05:16:29;46.1;;;56.4;;
22515;SDS011;11424;48.860;9.624;2022-12-29T05:21:29;70.7;;;90.2;;
22515;SDS011;11424;48.860;9.624;2022-12-29T05:26:29;295.1;;;498.6;;
22515;SDS011;11424;48.860;9.624;2022-12-29T05:31:29;335.4;;;566.8;;
22515;SDS011;11424;48.860;9.624;2022-12-29T05:36:29;332;;;535.1;;
22515;SDS011;11424;48.860;9.624;2022-12-29T05:41:29;330.7;;;536.6;;
22515;SDS011;11424;48.860;9.624;2022-12-29T05:46:29;319.1;;;513.9;;
22515;SDS011;11424;48.860;9.624;2022-12-29T05:51:29;330;;;535.3;;
22515;SDS011;11424;48.860;9.624;2022-12-29T05:56:29;280.3;;;467.2;;
22515;SDS011;11424;48.860;9.624;2022-12-29T06:01:29;171.6;;;298.3;;
22515;SDS011;11424;48.860;9.624;2022-12-29T06:06:29;35.6;;;38.4;;
22515;SDS011;11424;48.860;9.624;2022-12-29T06:11:29;61.4;;;75.7;;
22515;SDS011;11424;48.860;9.624;2022-12-29T06:16:29;42.3;;;46.6;;
22515;SDS011;11424;48.860;9.624;2022-12-29T06:21:29;32.6;;;51.5;;
22515;SDS011;11424;48.860;9.624;2022-12-29T06:26:29;32.4;;;55.9;;
22515;SDS011;11424;48.860;9.624;2022-12-29T06:31:29;34.2;;;54.8;;
22515;SDS011;11424;48.860;9.624;2022-12-29T06:36:29;31.7;;;56.4;;
22515;SDS011;11424;48.860;9.624;2022-12-29T06:41:29;35;;;58.1;;
22515;SDS011;11424;48.860;9.624;2022-12-29T06:46:29;32.9;;;54.4;;
22515;SDS011;11424;48.860;9.624;2022-12-29T06:51:29;37.3;;;56.2;;
22515;SDS011;11424;48.860;9.624;2022-12-29T06:56:29;35.8;;;54.5;;
22515;SDS011;11424;48.860;9.624;2022-12-29T07:01:29;30.2;;;47.8;;
22515;SDS011;11424;48.860;9.624;2022-12-29T07:06:29;32.2;;;48.8;;
22515;SDS011;11424;48.860;9.624;2022-12-29T07:11:29;35.9;;;55;;
22515;SDS011;11424;48.860;9.624;2022-12-29T07:16:29;34.1;;;53.1;;
22515;SDS011;11424;48.860;9.624;2022-12-29T07:21:29;33.1;;;52.9;;
22515;SDS011;11424;48.860;9.624;2022-12-29T07:26:29;36;;;58;;
22515;SDS011;11424;48.860;9.624;2022-12-29T07:31:29;32.8;;;51.5;;
22515;SDS011;11424;48.860;9.624;2022-12-29T07:36:29;35.3;;;53.2;;
22515;SDS011;11424;48.860;9.624;2022-12-29T07:41:29;32.3;;;47.1;;
22515;SDS011;11424;48.860;9.624;2022-12-29T07:46:29;31.3;;;52.6;;
22515;SDS011;11424;48.860;9.624;2022-12-29T07:51:29;31.3;;;47.6;;
22515;SDS011;11424;48.860;9.624;2022-12-29T07:56:29;34.2;;;60.7;;
22515;SDS011;11424;48.860;9.624;2022-12-29T08:01:29;34.9;;;60.5;;
22515;SDS011;11424;48.860;9.624;2022-12-29T08:06:29;31.5;;;55.7;;
22515;SDS011;11424;48.860;9.624;2022-12-29T08:11:29;34.6;;;57.3;;
22515;SDS011;11424;48.860;9.624;2022-12-29T08:16:29;31.8;;;48.5;;
22515;SDS011;11424;48.860;9.624;2022-12-29T08:21:29;30.7;;;50.8;;
22515;SDS011;11424;48.860;9.624;2022-12-29T08:26:29;31.6;;;47.9;;
22515;SDS011;11424;48.860;9.624;2022-12-29T08:31:30;30.3;;;50.8;;
22515;SDS011;11424;48.860;9.624;2022-12-29T08:36:29;31.7;;;58.2;;
22515;SDS011;11424;48.860;9.624;2022-12-29T08:41:29;30.1;;;58;;
22515;SDS011;11424;48.860;9.624;2022-12-29T08:46:29;32.3;;;58.3;;
22515;SDS011;11424;48.860;9.624;2022-12-29T08:51:29;36.1;;;63.5;;
22515;SDS011;11424;48.860;9.624;2022-12-29T08:56:29;34.5;;;56.8;;
22515;SDS011;11424;48.860;9.624;2022-12-29T09:01:29;35.2;;;57.9;;
22515;SDS011;11424;48.860;9.624;2022-12-29T09:06:30;35.7;;;61.7;;
22515;SDS011;11424;48.860;9.624;2022-12-29T09:11:29;35.6;;;55.6;;
22515;SDS011;11424;48.860;9.624;2022-12-29T09:16:29;35.5;;;60.8;;
22515;SDS011;11424;48.860;9.624;2022-12-29T09:21:29;32.1;;;61.2;;
22515;SDS011;11424;48.860;9.624;2022-12-29T09:26:29;31.2;;;55.7;;
22515;SDS011;11424;48.860;9.624;2022-12-29T09:31:29;34.2;;;60.8;;
22515;SDS011;11424;48.860;9.624;2022-12-29T09:36:29;31.9;;;57.6;;
22515;SDS011;11424;48.860;9.624;2022-12-29T09:41:29;37;;;59.9;;
22515;SDS011;11424;48.860;9.624;2022-12-29T09:46:31;30.1;;;60.5;;
22515;SDS011;11424;48.860;9.624;2022-12-29T09:51:29;30.6;;;54.3;;
22515;SDS011;11424;48.860;9.624;2022-12-29T09:56:29;31.7;;;56.5;;
22515;SDS011;11424;48.860;9.624;2022-12-29T10:01:30;30;;;56.2;;
22515;SDS011;11424;48.860;9.624;2022-12-29T10:06:32;33;;;56.8;;
22515;SDS011;11424;48.860;9.624;2022-12-29T10:11:33;36.7;;;55.7;;
22515;SDS011;11424;48.860;9.624;2022-12-29T10:16:31;34.4;;;50.9;;
22515;SDS011;11424;48.860;9.624;2022-12-29T10:21:33;34;;;54.9;;
22515;SDS011;11424;48.860;9.624;2022-12-29T10:26:31;35.7;;;58.3;;
22515;SDS011;11424;48.860;9.624;2022-12-29T10:31:31;61.1;;;109.8;;
22515;SDS011;11424;48.860;9.624;2022-12-29T10:36:33;62.9;;;124.4;;
22515;SDS011;11424;48.860;9.624;2022-12-29T10:41:32;74.9;;;136.8;;
22515;SDS011;11424;48.860;9.624;2022-12-29T10:46:33;46.1;;;71.5;;
22515;SDS011;11424;48.860;9.624;2022-12-29T10:51:31;31.7;;;50.4;;
22515;SDS011;11424;48.860;9.624;2022-12-29T10:56:32;34.6;;;55.5;;
22515;SDS011;11424;48.860;9.624;2022-12-29T11:01:31;34.8;;;52.9;;
22515;SDS011;11424;48.860;9.624;2022-12-29T11:06:29;69.5;;;125.7;;
22515;SDS011;11424;48.860;9.624;2022-12-29T11:11:33;67.7;;;120.3;;
22515;SDS011;11424;48.860;9.624;2022-12-29T11:16:30;57.3;;;100.3;;
22515;SDS011;11424;48.860;9.624;2022-12-29T11:21:32;75.1;;;120.9;;
22515;SDS011;11424;48.860;9.624;2022-12-29T11:26:30;76.8;;;138.8;;
22515;SDS011;11424;48.860;9.624;2022-12-29T11:31:33;49.3;;;78.7;;
22515;SDS011;11424;48.860;9.624;2022-12-29T11:36:29;40.4;;;61.7;;
22515;SDS011;11424;48.860;9.624;2022-12-29T11:41:30;115.2;;;231.8;;
22515;SDS011;11424;48.860;9.624;2022-12-29T11:46:30;79.1;;;147.8;;
22515;SDS011;11424;48.860;9.624;2022-12-29T11:51:30;84.6;;;163.2;;
22515;SDS011;11424;48.860;9.624;2022-12-29T11:56:33;104.1;;;206;;
22515;SDS011;11424;48.860;9.624;2022-12-29T12:01:33;94.4;;;182.1;;
22515;SDS011;11424;48.860;9.624;2022-12-29T12:06:29;83.4;;;152.7;;
22515;SDS011;11424;48.860;9.624;2022-12-29T12:11:30;43.6;;;77.6;;
22515;SDS011;11424;48.860;9.624;2022-12-29T12:16:32;39.9;;;71.9;;
22515;SDS011;11424;48.860;9.624;2022-12-29T12:21:31;39.4;;;64.4;;
22515;SDS011;11424;48.860;9.624;2022-12-29T12:26:30;46.6;;;79.1;;
22515;SDS011;11424;48.860;9.624;2022-12-29T12:31:34;50.1;;;85.2;;
22515;SDS011;11424;48.860;9.624;2022-12-29T12:36:37;35.2;;;59.8;;
22515;SDS011;11424;48.860;9.624;2022-12-29T12:41:32;36.9;;;60.3;;
22515;SDS011;11424;48.860;9.624;2022-12-29T12:51:31;45.8;;;67;;
22515;SDS011;11424;48.860;9.624;2022-12-29T12:56:36;56.6;;;90.1;;
22515;SDS011;11424;48.860;9.624;2022-12-29T13:01:35;58.8;;;91;;
22515;SDS011;11424;48.860;9.624;2022-12-29T13:06:33;106.1;;;183.7;;
22515;SDS011;11424;48.860;9.624;2022-12-29T13:11:32;69.6;;;93;;
22515;SDS011;11424;48.860;9.624;2022-12-29T13:16:31;148.5;;;263.1;;
22515;SDS011;11424;48.860;9.624;2022-12-29T13:21:33;149.3;;;258.9;;
22515;SDS011;11424;48.860;9.624;2022-12-29T13:26:30;193;;;344.5;;
22515;SDS011;11424;48.860;9.624;2022-12-29T13:31:30;183.6;;;327.4;;
22515;SDS011;11424;48.860;9.624;2022-12-29T13:36:33;80.5;;;118.5;;
22515;SDS011;11424;48.860;9.624;2022-12-29T13:41:30;134.9;;;239.3;;
22515;SDS011;11424;48.860;9.624;2022-12-29T13:46:31;135.2;;;231.9;;
22515;SDS011;11424;48.860;9.624;2022-12-29T13:51:29;188.3;;;339.1;;
22515;SDS011;11424;48.860;9.624;2022-12-29T13:56:31;233.7;;;410.4;;
22515;SDS011;11424;48.860;9.624;2022-12-29T14:01:30;224.5;;;403.1;;
22515;SDS011;11424;48.860;9.624;2022-12-29T14:06:30;225.2;;;405.6;;
22515;SDS011;11424;48.860;9.624;2022-12-29T14:11:30;231.4;;;410.7;;
22515;SDS011;11424;48.860;9.624;2022-12-29T14:16:30;236.1;;;418.7;;
22515;SDS011;11424;48.860;9.624;2022-12-29T14:21:29;211.9;;;388.9;;
22515;SDS011;11424;48.860;9.624;2022-12-29T14:26:33;226.1;;;405.9;;
22515;SDS011;11424;48.860;9.624;2022-12-29T14:31:33;241.9;;;431;;
22515;SDS011;11424;48.860;9.624;2022-12-29T14:36:33;211.3;;;384.5;;
22515;SDS011;11424;48.860;9.624;2022-12-29T14:41:30;122.6;;;215.3;;
22515;SDS011;11424;48.860;9.624;2022-12-29T14:46:46;61.3;;;97;;
22515;SDS011;11424;48.860;9.624;2022-12-29T14:51:31;96.4;;;183.6;;
22515;SDS011;11424;48.860;9.624;2022-12-29T14:56:38;79.9;;;142.5;;
22515;SDS011;11424;48.860;9.624;2022-12-29T15:01:36;91.2;;;176;;
22515;SDS011;11424;48.860;9.624;2022-12-29T15:06:29;85.7;;;160.1;;
22515;SDS011;11424;48.860;9.624;2022-12-29T15:11:31;69.7;;;125.1;;
22515;SDS011;11424;48.860;9.624;2022-12-29T15:16:30;75.6;;;144;;
22515;SDS011;11424;48.860;9.624;2022-12-29T15:21:30;86.5;;;163.2;;
22515;SDS011;11424;48.860;9.624;2022-12-29T15:26:36;76.4;;;143.8;;
22515;SDS011;11424;48.860;9.624;2022-12-29T15:31:29;64.9;;;111.4;;
22515;SDS011;11424;48.860;9.624;2022-12-29T15:36:34;43.3;;;77.9;;
22515;SDS011;11424;48.860;9.624;2022-12-29T15:41:32;49.9;;;80.3;;
22515;SDS011;11424;48.860;9.624;2022-12-29T15:46:29;60.7;;;119.6;;
22515;SDS011;11424;48.860;9.624;2022-12-29T15:51:30;85.3;;;164.5;;
22515;SDS011;11424;48.860;9.624;2022-12-29T15:56:30;87.6;;;167.1;;
22515;SDS011;11424;48.860;9.624;2022-12-29T16:01:30;64.4;;;127.1;;
22515;SDS011;11424;48.860;9.624;2022-12-29T16:06:31;78.3;;;152.4;;
22515;SDS011;11424;48.860;9.624;2022-12-29T16:11:31;72.3;;;137;;
22515;SDS011;11424;48.860;9.624;2022-12-29T16:16:30;72.3;;;143.9;;
22515;SDS011;11424;48.860;9.624;2022-12-29T16:21:31;64.1;;;126.6;;
22515;SDS011;11424;48.860;9.624;2022-12-29T16:26:29;73;;;145.4;;
22515;SDS011;11424;48.860;9.624;2022-12-29T16:31:33;65.7;;;139.3;;
22515;SDS011;11424;48.860;9.624;2022-12-29T16:36:31;70.3;;;147.2;;
22515;SDS011;11424;48.860;9.624;2022-12-29T16:41:30;82.2;;;169.8;;
22515;SDS011;11424;48.860;9.624;2022-12-29T16:46:29;86.5;;;182.2;;
22515;SDS011;11424;48.860;9.624;2022-12-29T16:51:30;82.8;;;172.3;;
22515;SDS011;11424;48.860;9.624;2022-12-29T16:56:30;73.1;;;151.9;;
22515;SDS011;11424;48.860;9.624;2022-12-29T17:01:30;51.5;;;95.2;;
22515;SDS011;11424;48.860;9.624;2022-12-29T17:06:30;45.8;;;93.1;;
22515;SDS011;11424;48.860;9.624;2022-12-29T17:11:30;55;;;97.7;;
22515;SDS011;11424;48.860;9.624;2022-12-29T17:16:30;33.7;;;62;;
22515;SDS011;11424;48.860;9.624;2022-12-29T17:21:30;32.6;;;62.7;;
22515;SDS011;11424;48.860;9.624;2022-12-29T17:26:30;34.2;;;57.3;;
22515;SDS011;11424;48.860;9.624;2022-12-29T17:31:30;30.7;;;58.9;;
22515;SDS011;11424;48.860;9.624;2022-12-29T17:36:30;34.8;;;66;;
22515;SDS011;11424;48.860;9.624;2022-12-29T17:41:30;31.3;;;58.5;;
22515;SDS011;11424;48.860;9.624;2022-12-29T17:46:30;49.7;;;98.8;;
22515;SDS011;11424;48.860;9.624;2022-12-29T17:51:30;59.2;;;123.4;;
22515;SDS011;11424;48.860;9.624;2022-12-29T17:56:30;95.4;;;197.2;;
22515;SDS011;11424;48.860;9.624;2022-12-29T18:01:30;87.9;;;179;;
22515;SDS011;11424;48.860;9.624;2022-12-29T18:06:30;96;;;194.3;;
22515;SDS011;11424;48.860;9.624;2022-12-29T18:11:30;93.3;;;188.2;;
22515;SDS011;11424;48.860;9.624;2022-12-29T18:16:30;85.4;;;169;;
22515;SDS011;11424;48.860;9.624;2022-12-29T18:21:30;83.1;;;168.2;;
22515;SDS011;11424;48.860;9.624;2022-12-29T18:26:30;66.6;;;139;;
22515;SDS011;11424;48.860;9.624;2022-12-29T18:31:30;70.9;;;147.3;;
22515;SDS011;11424;48.860;9.624;2022-12-29T18:36:30;65.8;;;132.6;;
22515;SDS011;11424;48.860;9.624;2022-12-29T18:41:30;34.5;;;63.5;;
22515;SDS011;11424;48.860;9.624;2022-12-29T18:46:30;40.8;;;81.2;;
22515;SDS011;11424;48.860;9.624;2022-12-29T18:51:30;34.8;;;60.1;;
22515;SDS011;11424;48.860;9.624;2022-12-29T18:56:30;29.8;;;53.3;;
22515;SDS011;11424;48.860;9.624;2022-12-29T19:01:30;35.1;;;62;;
22515;SDS011;11424;48.860;9.624;2022-12-29T19:06:30;44.3;;;80;;
22515;SDS011;11424;48.860;9.624;2022-12-29T19:11:30;61.2;;;118;;
22515;SDS011;11424;48.860;9.624;2022-12-29T19:16:30;49;;;86.6;;
22515;SDS011;11424;48.860;9.624;2022-12-29T19:21:30;99.2;;;190.5;;
22515;SDS011;11424;48.860;9.624;2022-12-29T19:26:31;76.3;;;148.7;;
22515;SDS011;11424;48.860;9.624;2022-12-29T19:31:30;74;;;145.2;;
22515;SDS011;11424;48.860;9.624;2022-12-29T19:36:30;91.7;;;172.1;;
22515;SDS011;11424;48.860;9.624;2022-12-29T19:41:30;75.5;;;140.4;;
22515;SDS011;11424;48.860;9.624;2022-12-29T19:46:30;79.5;;;144.9;;
22515;SDS011;11424;48.860;9.624;2022-12-29T19:51:30;59.1;;;110;;
22515;SDS011;11424;48.860;9.624;2022-12-29T19:56:30;68.8;;;128.7;;
22515;SDS011;11424;48.860;9.624;2022-12-29T20:01:30;66.3;;;121.5;;
22515;SDS011;11424;48.860;9.624;2022-12-29T20:06:30;54;;;96.5;;
22515;SDS011;11424;48.860;9.624;2022-12-29T20:11:30;35.5;;;59;;
22515;SDS011;11424;48.860;9.624;2022-12-29T20:16:30;48.8;;;98.3;;
22515;SDS011;11424;48.860;9.624;2022-12-29T20:21:30;81.6;;;162.3;;
22515;SDS011;11424;48.860;9.624;2022-12-29T20:26:30;82.8;;;164.8;;
22515;SDS011;11424;48.860;9.624;2022-12-29T20:31:31;72.2;;;145.9;;
22515;SDS011;11424;48.860;9.624;2022-12-29T20:36:31;99.2;;;201;;
22515;SDS011;11424;48.860;9.624;2022-12-29T20:41:31;80;;;158.2;;
22515;SDS011;11424;48.860;9.624;2022-12-29T20:46:30;85.7;;;167;;
22515;SDS011;11424;48.860;9.624;2022-12-29T20:51:30;84.5;;;167.5;;
22515;SDS011;11424;48.860;9.624;2022-12-29T20:56:30;100.5;;;208.6;;
22515;SDS011;11424;48.860;9.624;2022-12-29T21:01:30;66.2;;;119.6;;
22515;SDS011;11424;48.860;9.624;2022-12-29T21:06:30;91.7;;;195.7;;
22515;SDS011;11424;48.860;9.624;2022-12-29T21:11:30;114;;;229.2;;
22515;SDS011;11424;48.860;9.624;2022-12-29T21:16:30;92.9;;;197.6;;
22515;SDS011;11424;48.860;9.624;2022-12-29T21:21:30;83.2;;;167.6;;
22515;SDS011;11424;48.860;9.624;2022-12-29T21:26:30;99.9;;;214.1;;
22515;SDS011;11424;48.860;9.624;2022-12-29T21:31:30;95.5;;;213.9;;
22515;SDS011;11424;48.860;9.624;2022-12-29T21:36:30;131.5;;;284.7;;
22515;SDS011;11424;48.860;9.624;2022-12-29T21:41:30;117.2;;;257.6;;
22515;SDS011;11424;48.860;9.624;2022-12-29T21:46:30;102.3;;;213.3;;
22515;SDS011;11424;48.860;9.624;2022-12-29T21:51:30;89.2;;;187.9;;
22515;SDS011;11424;48.860;9.624;2022-12-29T21:56:30;116.3;;;246.7;;
22515;SDS011;11424;48.860;9.624;2022-12-29T22:01:31;106.5;;;231.8;;
22515;SDS011;11424;48.860;9.624;2022-12-29T22:06:30;45.3;;;92.5;;
22515;SDS011;11424;48.860;9.624;2022-12-29T22:11:30;47.2;;;91.7;;
22515;SDS011;11424;48.860;9.624;2022-12-29T22:16:30;35.2;;;70.4;;
22515;SDS011;11424;48.860;9.624;2022-12-29T22:21:30;73;;;143;;
22515;SDS011;11424;48.860;9.624;2022-12-29T22:26:30;79.8;;;154;;
22515;SDS011;11424;48.860;9.624;2022-12-29T22:31:30;80;;;167.2;;
22515;SDS011;11424;48.860;9.624;2022-12-29T22:36:30;72.7;;;145.6;;
22515;SDS011;11424;48.860;9.624;2022-12-29T22:41:30;76.8;;;156.6;;
22515;SDS011;11424;48.860;9.624;2022-12-29T22:46:30;86.7;;;127.1;;
22515;SDS011;11424;48.860;9.624;2022-12-29T22:51:30;168.1;;;320.2;;
22515;SDS011;11424;48.860;9.624;2022-12-29T22:56:30;70.8;;;103.2;;
22515;SDS011;11424;48.860;9.624;2022-12-29T23:01:30;43.7;;;48.8;;
22515;SDS011;11424;48.860;9.624;2022-12-29T23:06:30;27.6;;;30.2;;
22515;SDS011;11424;48.860;9.624;2022-12-29T23:11:30;41.8;;;45.8;;
22515;SDS011;11424;48.860;9.624;2022-12-29T23:16:30;34.5;;;37.7;;
22515;SDS011;11424;48.860;9.624;2022-12-29T23:21:30;35.6;;;38.9;;
22515;SDS011;11424;48.860;9.624;2022-12-29T23:26:31;43.9;;;48;;
22515;SDS011;11424;48.860;9.624;2022-12-29T23:31:30;21.2;;;22.1;;
22515;SDS011;11424;48.860;9.624;2022-12-29T23:36:30;41.7;;;44.6;;
22515;SDS011;11424;48.860;9.624;2022-12-29T23:41:30;22.2;;;23.9;;
22515;SDS011;11424;48.860;9.624;2022-12-29T23:46:30;63.4;;;94.5;;
22515;SDS011;11424;48.860;9.624;2022-12-29T23:51:30;33.8;;;54.1;;
22515;SDS011;11424;48.860;9.624;2022-12-29T23:56:30;32.8;;;55.3;;
